sensor_id;sensor_type;location;lat;lon;timestamp;temperature;humidity
26304;DHT22;70693;48.680;8.890;2023-07-08T00:00:23;21.30;97.90
26304;DHT22;70693;48.680;8.890;2023-07-08T00:02:49;21.30;97.90
26304;DHT22;70693;48.680;8.890;2023-07-08T00:05:17;21.30;97.90
26304;DHT22;70693;48.680;8.890;2023-07-08T00:07:44;21.30;98.30
26304;DHT22;70693;48.680;8.890;2023-07-08T00:10:13;21.30;97.90
26304;DHT22;70693;48.680;8.890;2023-07-08T00:12:40;21.30;97.90
26304;DHT22;70693;48.680;8.890;2023-07-08T00:15:07;21.30;97.90
26304;DHT22;70693;48.680;8.890;2023-07-08T00:17:33;21.30;97.90
26304;DHT22;70693;48.680;8.890;2023-07-08T00:19:59;21.30;97.90
26304;DHT22;70693;48.680;8.890;2023-07-08T00:22:25;21.30;97.90
26304;DHT22;70693;48.680;8.890;2023-07-08T00:24:51;21.30;97.90
26304;DHT22;70693;48.680;8.890;2023-07-08T00:27:17;21.30;97.90
26304;DHT22;70693;48.680;8.890;2023-07-08T00:29:43;21.30;97.90
26304;DHT22;70693;48.680;8.890;2023-07-08T00:32:14;21.30;97.90
26304;DHT22;70693;48.680;8.890;2023-07-08T00:34:41;21.30;98.00
26304;DHT22;70693;48.680;8.890;2023-07-08T00:37:13;21.30;98.00
26304;DHT22;70693;48.680;8.890;2023-07-08T00:39:39;21.30;97.90
26304;DHT22;70693;48.680;8.890;2023-07-08T00:42:16;21.30;98.00
26304;DHT22;70693;48.680;8.890;2023-07-08T00:44:43;21.30;98.00
26304;DHT22;70693;48.680;8.890;2023-07-08T00:47:11;21.30;98.00
26304;DHT22;70693;48.680;8.890;2023-07-08T00:49:48;21.30;98.00
26304;DHT22;70693;48.680;8.890;2023-07-08T00:52:42;21.30;98.00
26304;DHT22;70693;48.680;8.890;2023-07-08T00:55:09;21.30;98.00
26304;DHT22;70693;48.680;8.890;2023-07-08T00:57:38;21.30;98.00
26304;DHT22;70693;48.680;8.890;2023-07-08T01:00:10;21.30;98.00
26304;DHT22;70693;48.680;8.890;2023-07-08T01:02:49;21.30;98.00
26304;DHT22;70693;48.680;8.890;2023-07-08T01:05:23;21.30;98.00
26304;DHT22;70693;48.680;8.890;2023-07-08T01:07:54;21.30;98.00
26304;DHT22;70693;48.680;8.890;2023-07-08T01:10:32;21.30;98.00
26304;DHT22;70693;48.680;8.890;2023-07-08T01:13:02;21.30;98.00
26304;DHT22;70693;48.680;8.890;2023-07-08T01:15:37;21.20;98.00
26304;DHT22;70693;48.680;8.890;2023-07-08T01:18:04;21.20;98.00
26304;DHT22;70693;48.680;8.890;2023-07-08T01:20:30;21.30;98.00
26304;DHT22;70693;48.680;8.890;2023-07-08T01:22:55;21.30;98.00
26304;DHT22;70693;48.680;8.890;2023-07-08T01:25:22;21.20;98.00
26304;DHT22;70693;48.680;8.890;2023-07-08T01:27:52;21.20;98.00
26304;DHT22;70693;48.680;8.890;2023-07-08T01:30:18;21.30;98.00
26304;DHT22;70693;48.680;8.890;2023-07-08T01:32:55;21.20;98.00
26304;DHT22;70693;48.680;8.890;2023-07-08T01:35:22;21.20;98.00
26304;DHT22;70693;48.680;8.890;2023-07-08T01:37:56;21.20;98.00
26304;DHT22;70693;48.680;8.890;2023-07-08T01:40:32;21.20;98.00
26304;DHT22;70693;48.680;8.890;2023-07-08T01:42:59;21.20;98.00
26304;DHT22;70693;48.680;8.890;2023-07-08T01:45:27;21.20;98.00
26304;DHT22;70693;48.680;8.890;2023-07-08T01:48:19;21.20;98.00
26304;DHT22;70693;48.680;8.890;2023-07-08T01:50:56;21.20;98.00
26304;DHT22;70693;48.680;8.890;2023-07-08T01:53:34;21.20;98.00
26304;DHT22;70693;48.680;8.890;2023-07-08T01:56:00;21.20;98.00
26304;DHT22;70693;48.680;8.890;2023-07-08T01:58:26;21.20;98.00
26304;DHT22;70693;48.680;8.890;2023-07-08T02:00:52;21.20;98.00
26304;DHT22;70693;48.680;8.890;2023-07-08T02:03:18;21.20;98.00
26304;DHT22;70693;48.680;8.890;2023-07-08T02:05:43;21.20;98.00
26304;DHT22;70693;48.680;8.890;2023-07-08T02:08:09;21.20;98.00
26304;DHT22;70693;48.680;8.890;2023-07-08T02:10:36;21.20;98.00
26304;DHT22;70693;48.680;8.890;2023-07-08T02:13:02;21.20;98.00
26304;DHT22;70693;48.680;8.890;2023-07-08T02:15:28;21.20;98.00
26304;DHT22;70693;48.680;8.890;2023-07-08T02:17:53;21.20;98.00
26304;DHT22;70693;48.680;8.890;2023-07-08T02:20:19;21.20;98.00
26304;DHT22;70693;48.680;8.890;2023-07-08T02:22:45;21.20;98.00
26304;DHT22;70693;48.680;8.890;2023-07-08T02:25:10;21.20;98.00
26304;DHT22;70693;48.680;8.890;2023-07-08T02:27:37;21.20;98.00
26304;DHT22;70693;48.680;8.890;2023-07-08T02:30:03;21.20;98.00
26304;DHT22;70693;48.680;8.890;2023-07-08T02:32:29;21.20;98.00
26304;DHT22;70693;48.680;8.890;2023-07-08T02:34:55;21.20;98.00
26304;DHT22;70693;48.680;8.890;2023-07-08T02:37:21;21.20;98.00
26304;DHT22;70693;48.680;8.890;2023-07-08T02:39:46;21.20;98.00
26304;DHT22;70693;48.680;8.890;2023-07-08T02:42:12;21.20;98.00
26304;DHT22;70693;48.680;8.890;2023-07-08T02:44:37;21.20;98.00
26304;DHT22;70693;48.680;8.890;2023-07-08T02:47:03;21.20;98.00
26304;DHT22;70693;48.680;8.890;2023-07-08T02:49:30;21.20;98.00
26304;DHT22;70693;48.680;8.890;2023-07-08T02:51:55;21.20;98.00
26304;DHT22;70693;48.680;8.890;2023-07-08T02:54:21;21.20;98.00
26304;DHT22;70693;48.680;8.890;2023-07-08T02:56:46;21.20;98.00
26304;DHT22;70693;48.680;8.890;2023-07-08T02:59:12;21.20;98.00
26304;DHT22;70693;48.680;8.890;2023-07-08T03:01:38;21.20;98.00
26304;DHT22;70693;48.680;8.890;2023-07-08T03:04:10;21.20;98.00
26304;DHT22;70693;48.680;8.890;2023-07-08T03:06:44;21.20;98.00
26304;DHT22;70693;48.680;8.890;2023-07-08T03:09:11;21.20;98.00
26304;DHT22;70693;48.680;8.890;2023-07-08T03:11:38;21.20;98.00
26304;DHT22;70693;48.680;8.890;2023-07-08T03:14:04;21.20;98.00
26304;DHT22;70693;48.680;8.890;2023-07-08T03:16:30;21.20;98.00
26304;DHT22;70693;48.680;8.890;2023-07-08T03:18:56;21.20;98.00
26304;DHT22;70693;48.680;8.890;2023-07-08T03:21:21;21.20;98.00
26304;DHT22;70693;48.680;8.890;2023-07-08T03:23:49;21.20;98.00
26304;DHT22;70693;48.680;8.890;2023-07-08T03:26:16;21.10;97.90
26304;DHT22;70693;48.680;8.890;2023-07-08T03:28:43;21.10;98.20
26304;DHT22;70693;48.680;8.890;2023-07-08T03:31:09;21.20;98.00
26304;DHT22;70693;48.680;8.890;2023-07-08T03:33:35;21.20;97.90
26304;DHT22;70693;48.680;8.890;2023-07-08T03:36:02;21.20;98.00
26304;DHT22;70693;48.680;8.890;2023-07-08T03:38:28;21.10;97.90
26304;DHT22;70693;48.680;8.890;2023-07-08T03:40:55;21.10;97.90
26304;DHT22;70693;48.680;8.890;2023-07-08T03:43:21;21.10;97.90
26304;DHT22;70693;48.680;8.890;2023-07-08T03:45:46;21.10;97.90
26304;DHT22;70693;48.680;8.890;2023-07-08T03:48:12;21.10;97.90
26304;DHT22;70693;48.680;8.890;2023-07-08T03:50:39;21.10;97.90
26304;DHT22;70693;48.680;8.890;2023-07-08T03:53:05;21.10;97.90
26304;DHT22;70693;48.680;8.890;2023-07-08T03:55:31;21.10;97.90
26304;DHT22;70693;48.680;8.890;2023-07-08T03:57:56;21.10;97.90
26304;DHT22;70693;48.680;8.890;2023-07-08T04:00:22;21.10;97.90
26304;DHT22;70693;48.680;8.890;2023-07-08T04:02:48;21.10;97.90
26304;DHT22;70693;48.680;8.890;2023-07-08T04:05:18;21.10;97.90
26304;DHT22;70693;48.680;8.890;2023-07-08T04:07:45;21.10;97.90
26304;DHT22;70693;48.680;8.890;2023-07-08T04:10:11;21.10;97.90
26304;DHT22;70693;48.680;8.890;2023-07-08T04:12:38;21.10;97.90
26304;DHT22;70693;48.680;8.890;2023-07-08T04:15:04;21.10;97.90
26304;DHT22;70693;48.680;8.890;2023-07-08T04:17:30;21.10;97.90
26304;DHT22;70693;48.680;8.890;2023-07-08T04:19:56;21.10;97.90
26304;DHT22;70693;48.680;8.890;2023-07-08T04:22:29;21.10;97.90
26304;DHT22;70693;48.680;8.890;2023-07-08T04:24:55;21.10;97.90
26304;DHT22;70693;48.680;8.890;2023-07-08T04:27:20;21.10;97.90
26304;DHT22;70693;48.680;8.890;2023-07-08T04:29:47;21.10;97.90
26304;DHT22;70693;48.680;8.890;2023-07-08T04:32:13;21.10;97.90
26304;DHT22;70693;48.680;8.890;2023-07-08T04:34:38;21.10;97.90
26304;DHT22;70693;48.680;8.890;2023-07-08T04:37:04;21.10;97.90
26304;DHT22;70693;48.680;8.890;2023-07-08T04:39:31;21.10;97.90
26304;DHT22;70693;48.680;8.890;2023-07-08T04:41:57;21.10;97.90
26304;DHT22;70693;48.680;8.890;2023-07-08T04:44:22;21.10;97.90
26304;DHT22;70693;48.680;8.890;2023-07-08T04:46:52;21.10;97.90
26304;DHT22;70693;48.680;8.890;2023-07-08T04:49:20;21.10;98.00
26304;DHT22;70693;48.680;8.890;2023-07-08T04:51:46;21.10;97.90
26304;DHT22;70693;48.680;8.890;2023-07-08T04:54:12;21.10;97.90
26304;DHT22;70693;48.680;8.890;2023-07-08T04:56:43;21.10;97.90
26304;DHT22;70693;48.680;8.890;2023-07-08T04:59:10;21.10;98.00
26304;DHT22;70693;48.680;8.890;2023-07-08T05:01:37;21.10;98.00
26304;DHT22;70693;48.680;8.890;2023-07-08T05:04:03;21.10;98.00
26304;DHT22;70693;48.680;8.890;2023-07-08T05:06:31;21.10;98.00
26304;DHT22;70693;48.680;8.890;2023-07-08T05:08:58;21.10;98.00
26304;DHT22;70693;48.680;8.890;2023-07-08T05:11:24;21.10;98.00
26304;DHT22;70693;48.680;8.890;2023-07-08T05:13:51;21.10;98.00
26304;DHT22;70693;48.680;8.890;2023-07-08T05:16:16;21.10;98.00
26304;DHT22;70693;48.680;8.890;2023-07-08T05:18:42;21.10;98.30
26304;DHT22;70693;48.680;8.890;2023-07-08T05:21:09;21.10;98.00
26304;DHT22;70693;48.680;8.890;2023-07-08T05:23:35;21.10;98.00
26304;DHT22;70693;48.680;8.890;2023-07-08T05:26:02;21.10;98.00
26304;DHT22;70693;48.680;8.890;2023-07-08T05:28:28;21.10;98.00
26304;DHT22;70693;48.680;8.890;2023-07-08T05:30:54;21.10;98.00
26304;DHT22;70693;48.680;8.890;2023-07-08T05:33:24;21.10;98.10
26304;DHT22;70693;48.680;8.890;2023-07-08T05:35:50;21.10;98.10
26304;DHT22;70693;48.680;8.890;2023-07-08T05:38:16;21.20;98.10
26304;DHT22;70693;48.680;8.890;2023-07-08T05:40:41;21.10;98.10
26304;DHT22;70693;48.680;8.890;2023-07-08T05:43:07;21.10;98.10
26304;DHT22;70693;48.680;8.890;2023-07-08T05:45:33;21.10;98.10
26304;DHT22;70693;48.680;8.890;2023-07-08T05:48:00;21.10;98.10
26304;DHT22;70693;48.680;8.890;2023-07-08T05:50:26;21.10;98.10
26304;DHT22;70693;48.680;8.890;2023-07-08T05:52:51;21.10;98.10
26304;DHT22;70693;48.680;8.890;2023-07-08T05:55:17;21.10;98.10
26304;DHT22;70693;48.680;8.890;2023-07-08T05:57:42;21.10;98.10
26304;DHT22;70693;48.680;8.890;2023-07-08T06:00:08;21.10;98.10
26304;DHT22;70693;48.680;8.890;2023-07-08T06:02:34;21.10;98.20
26304;DHT22;70693;48.680;8.890;2023-07-08T06:05:00;21.10;98.10
26304;DHT22;70693;48.680;8.890;2023-07-08T06:07:25;21.10;98.10
26304;DHT22;70693;48.680;8.890;2023-07-08T06:09:52;21.10;98.20
26304;DHT22;70693;48.680;8.890;2023-07-08T06:12:18;21.10;98.20
26304;DHT22;70693;48.680;8.890;2023-07-08T06:14:43;21.10;98.20
26304;DHT22;70693;48.680;8.890;2023-07-08T06:17:09;21.10;98.20
26304;DHT22;70693;48.680;8.890;2023-07-08T06:19:35;21.10;99.50
26304;DHT22;70693;48.680;8.890;2023-07-08T06:22:00;21.10;99.30
26304;DHT22;70693;48.680;8.890;2023-07-08T06:24:26;21.10;99.20
26304;DHT22;70693;48.680;8.890;2023-07-08T06:26:51;21.10;99.10
26304;DHT22;70693;48.680;8.890;2023-07-08T06:29:17;21.10;99.00
26304;DHT22;70693;48.680;8.890;2023-07-08T06:31:45;21.10;99.00
26304;DHT22;70693;48.680;8.890;2023-07-08T06:34:10;21.10;98.90
26304;DHT22;70693;48.680;8.890;2023-07-08T06:36:36;21.10;98.90
26304;DHT22;70693;48.680;8.890;2023-07-08T06:39:02;21.10;98.90
26304;DHT22;70693;48.680;8.890;2023-07-08T06:41:28;21.10;98.80
26304;DHT22;70693;48.680;8.890;2023-07-08T06:43:53;21.10;98.80
26304;DHT22;70693;48.680;8.890;2023-07-08T06:46:19;21.10;98.80
26304;DHT22;70693;48.680;8.890;2023-07-08T06:48:45;21.20;98.80
26304;DHT22;70693;48.680;8.890;2023-07-08T06:51:11;21.10;98.70
26304;DHT22;70693;48.680;8.890;2023-07-08T06:53:36;21.10;99.10
26304;DHT22;70693;48.680;8.890;2023-07-08T06:56:02;21.10;98.70
26304;DHT22;70693;48.680;8.890;2023-07-08T06:58:28;21.10;98.70
26304;DHT22;70693;48.680;8.890;2023-07-08T07:00:53;21.10;98.70
26304;DHT22;70693;48.680;8.890;2023-07-08T07:03:19;21.10;98.70
26304;DHT22;70693;48.680;8.890;2023-07-08T07:05:45;21.10;98.70
26304;DHT22;70693;48.680;8.890;2023-07-08T07:08:10;21.20;98.70
26304;DHT22;70693;48.680;8.890;2023-07-08T07:10:36;21.10;98.70
26304;DHT22;70693;48.680;8.890;2023-07-08T07:13:02;21.10;98.70
26304;DHT22;70693;48.680;8.890;2023-07-08T07:15:28;21.20;98.70
26304;DHT22;70693;48.680;8.890;2023-07-08T07:17:57;21.20;98.70
26304;DHT22;70693;48.680;8.890;2023-07-08T07:20:23;21.20;98.70
26304;DHT22;70693;48.680;8.890;2023-07-08T07:22:49;21.20;98.70
26304;DHT22;70693;48.680;8.890;2023-07-08T07:25:17;21.20;98.70
26304;DHT22;70693;48.680;8.890;2023-07-08T07:27:43;21.20;98.70
26304;DHT22;70693;48.680;8.890;2023-07-08T07:30:09;21.20;98.70
26304;DHT22;70693;48.680;8.890;2023-07-08T07:32:43;21.20;98.70
26304;DHT22;70693;48.680;8.890;2023-07-08T07:35:10;21.20;98.70
26304;DHT22;70693;48.680;8.890;2023-07-08T07:37:40;21.20;98.70
26304;DHT22;70693;48.680;8.890;2023-07-08T07:40:13;21.20;98.70
26304;DHT22;70693;48.680;8.890;2023-07-08T07:42:42;21.20;98.70
26304;DHT22;70693;48.680;8.890;2023-07-08T07:45:08;21.20;98.70
26304;DHT22;70693;48.680;8.890;2023-07-08T07:47:35;21.20;98.70
26304;DHT22;70693;48.680;8.890;2023-07-08T07:50:01;21.20;98.70
26304;DHT22;70693;48.680;8.890;2023-07-08T07:52:27;21.20;98.70
26304;DHT22;70693;48.680;8.890;2023-07-08T07:54:54;21.20;98.70
26304;DHT22;70693;48.680;8.890;2023-07-08T07:57:21;21.20;98.70
26304;DHT22;70693;48.680;8.890;2023-07-08T07:59:47;21.20;98.70
26304;DHT22;70693;48.680;8.890;2023-07-08T08:02:14;21.20;98.70
26304;DHT22;70693;48.680;8.890;2023-07-08T08:04:40;21.20;98.70
26304;DHT22;70693;48.680;8.890;2023-07-08T08:07:06;21.20;98.70
26304;DHT22;70693;48.680;8.890;2023-07-08T08:09:31;21.20;98.60
26304;DHT22;70693;48.680;8.890;2023-07-08T08:11:57;21.20;98.60
26304;DHT22;70693;48.680;8.890;2023-07-08T08:14:23;21.20;98.70
26304;DHT22;70693;48.680;8.890;2023-07-08T08:16:48;21.20;98.70
26304;DHT22;70693;48.680;8.890;2023-07-08T08:19:14;21.20;98.70
26304;DHT22;70693;48.680;8.890;2023-07-08T08:21:39;21.20;98.70
26304;DHT22;70693;48.680;8.890;2023-07-08T08:24:05;21.20;98.70
26304;DHT22;70693;48.680;8.890;2023-07-08T08:26:31;21.20;99.00
26304;DHT22;70693;48.680;8.890;2023-07-08T08:28:57;21.20;98.70
26304;DHT22;70693;48.680;8.890;2023-07-08T08:31:23;21.20;98.70
26304;DHT22;70693;48.680;8.890;2023-07-08T08:33:48;21.20;98.70
26304;DHT22;70693;48.680;8.890;2023-07-08T08:36:14;21.20;98.70
26304;DHT22;70693;48.680;8.890;2023-07-08T08:38:39;21.20;98.70
26304;DHT22;70693;48.680;8.890;2023-07-08T08:41:18;21.20;98.70
26304;DHT22;70693;48.680;8.890;2023-07-08T08:43:45;21.20;98.70
26304;DHT22;70693;48.680;8.890;2023-07-08T08:48:59;21.30;98.70
26304;DHT22;70693;48.680;8.890;2023-07-08T08:51:31;21.20;98.70
26304;DHT22;70693;48.680;8.890;2023-07-08T08:53:57;21.20;98.70
26304;DHT22;70693;48.680;8.890;2023-07-08T08:56:28;21.20;98.70
26304;DHT22;70693;48.680;8.890;2023-07-08T09:01:44;21.20;98.70
26304;DHT22;70693;48.680;8.890;2023-07-08T09:04:22;21.20;98.70
26304;DHT22;70693;48.680;8.890;2023-07-08T09:06:48;21.20;98.70
26304;DHT22;70693;48.680;8.890;2023-07-08T09:09:26;21.20;98.70
26304;DHT22;70693;48.680;8.890;2023-07-08T09:12:03;21.30;98.70
26304;DHT22;70693;48.680;8.890;2023-07-08T09:14:31;21.30;98.70
26304;DHT22;70693;48.680;8.890;2023-07-08T09:17:24;21.30;98.70
26304;DHT22;70693;48.680;8.890;2023-07-08T09:23:09;21.30;98.70
26304;DHT22;70693;48.680;8.890;2023-07-08T09:25:46;21.30;98.70
26304;DHT22;70693;48.680;8.890;2023-07-08T09:28:13;21.30;98.80
26304;DHT22;70693;48.680;8.890;2023-07-08T09:30:39;21.30;98.70
26304;DHT22;70693;48.680;8.890;2023-07-08T09:33:08;21.30;98.70
26304;DHT22;70693;48.680;8.890;2023-07-08T09:35:43;21.30;98.70
26304;DHT22;70693;48.680;8.890;2023-07-08T09:38:21;21.30;98.80
26304;DHT22;70693;48.680;8.890;2023-07-08T09:40:52;21.30;98.70
26304;DHT22;70693;48.680;8.890;2023-07-08T09:43:36;21.30;98.80
26304;DHT22;70693;48.680;8.890;2023-07-08T09:46:02;21.30;98.80
26304;DHT22;70693;48.680;8.890;2023-07-08T09:48:33;21.30;98.80
26304;DHT22;70693;48.680;8.890;2023-07-08T09:50:59;21.30;98.80
26304;DHT22;70693;48.680;8.890;2023-07-08T09:53:25;21.30;98.80
26304;DHT22;70693;48.680;8.890;2023-07-08T09:55:53;21.40;98.80
26304;DHT22;70693;48.680;8.890;2023-07-08T09:58:25;21.40;98.90
26304;DHT22;70693;48.680;8.890;2023-07-08T10:00:57;21.40;98.90
26304;DHT22;70693;48.680;8.890;2023-07-08T10:03:34;21.40;98.80
26304;DHT22;70693;48.680;8.890;2023-07-08T10:06:05;21.40;98.90
26304;DHT22;70693;48.680;8.890;2023-07-08T10:08:40;21.40;98.90
26304;DHT22;70693;48.680;8.890;2023-07-08T10:11:30;21.40;98.90
26304;DHT22;70693;48.680;8.890;2023-07-08T10:14:04;21.40;98.90
26304;DHT22;70693;48.680;8.890;2023-07-08T10:16:32;21.40;98.90
26304;DHT22;70693;48.680;8.890;2023-07-08T10:18:59;21.40;98.90
26304;DHT22;70693;48.680;8.890;2023-07-08T10:21:36;21.40;98.90
26304;DHT22;70693;48.680;8.890;2023-07-08T10:27:23;21.40;98.90
26304;DHT22;70693;48.680;8.890;2023-07-08T10:35:30;21.40;98.90
26304;DHT22;70693;48.680;8.890;2023-07-08T10:38:19;21.40;98.90
26304;DHT22;70693;48.680;8.890;2023-07-08T10:43:44;21.50;98.90
26304;DHT22;70693;48.680;8.890;2023-07-08T10:51:30;21.70;99.90
26304;DHT22;70693;48.680;8.890;2023-07-08T11:01:47;21.70;99.90
26304;DHT22;70693;48.680;8.890;2023-07-08T11:06:58;21.70;99.90
26304;DHT22;70693;48.680;8.890;2023-07-08T11:12:20;21.70;99.90
26304;DHT22;70693;48.680;8.890;2023-07-08T11:14:55;21.70;99.90
26304;DHT22;70693;48.680;8.890;2023-07-08T11:17:30;21.70;99.90
26304;DHT22;70693;48.680;8.890;2023-07-08T11:20:18;21.80;99.90
26304;DHT22;70693;48.680;8.890;2023-07-08T11:23:14;21.80;99.90
26304;DHT22;70693;48.680;8.890;2023-07-08T11:25:33;21.80;99.90
26304;DHT22;70693;48.680;8.890;2023-07-08T11:28:04;21.80;99.90
26304;DHT22;70693;48.680;8.890;2023-07-08T11:30:32;21.80;99.90
26304;DHT22;70693;48.680;8.890;2023-07-08T11:33:05;21.80;99.90
26304;DHT22;70693;48.680;8.890;2023-07-08T11:35:36;21.80;99.90
26304;DHT22;70693;48.680;8.890;2023-07-08T11:38:03;21.80;99.90
26304;DHT22;70693;48.680;8.890;2023-07-08T11:40:30;21.80;99.90
26304;DHT22;70693;48.680;8.890;2023-07-08T11:43:04;21.80;99.90
26304;DHT22;70693;48.680;8.890;2023-07-08T11:45:39;21.80;99.90
26304;DHT22;70693;48.680;8.890;2023-07-08T11:50:49;21.80;99.90
26304;DHT22;70693;48.680;8.890;2023-07-08T11:56:19;21.80;99.90
26304;DHT22;70693;48.680;8.890;2023-07-08T11:58:50;21.80;99.90
26304;DHT22;70693;48.680;8.890;2023-07-08T12:04:17;21.80;99.90
26304;DHT22;70693;48.680;8.890;2023-07-08T12:06:48;21.80;99.90
26304;DHT22;70693;48.680;8.890;2023-07-08T12:09:27;21.80;99.90
26304;DHT22;70693;48.680;8.890;2023-07-08T12:12:06;21.80;99.90
26304;DHT22;70693;48.680;8.890;2023-07-08T12:14:32;21.80;99.90
26304;DHT22;70693;48.680;8.890;2023-07-08T12:16:58;21.80;99.90
26304;DHT22;70693;48.680;8.890;2023-07-08T12:19:27;21.80;99.90
26304;DHT22;70693;48.680;8.890;2023-07-08T12:21:54;21.80;99.90
26304;DHT22;70693;48.680;8.890;2023-07-08T12:24:20;21.80;99.90
26304;DHT22;70693;48.680;8.890;2023-07-08T12:26:53;21.80;99.90
26304;DHT22;70693;48.680;8.890;2023-07-08T12:29:18;21.80;99.90
26304;DHT22;70693;48.680;8.890;2023-07-08T12:31:44;21.90;99.90
26304;DHT22;70693;48.680;8.890;2023-07-08T12:34:15;21.80;99.80
26304;DHT22;70693;48.680;8.890;2023-07-08T12:36:46;21.80;99.20
26304;DHT22;70693;48.680;8.890;2023-07-08T12:39:14;21.80;99.10
26304;DHT22;70693;48.680;8.890;2023-07-08T12:41:43;21.80;99.10
26304;DHT22;70693;48.680;8.890;2023-07-08T12:44:21;21.80;99.10
26304;DHT22;70693;48.680;8.890;2023-07-08T12:46:49;21.80;99.10
26304;DHT22;70693;48.680;8.890;2023-07-08T12:49:16;21.80;99.00
26304;DHT22;70693;48.680;8.890;2023-07-08T12:51:47;21.80;99.00
26304;DHT22;70693;48.680;8.890;2023-07-08T12:54:13;21.80;99.00
26304;DHT22;70693;48.680;8.890;2023-07-08T12:56:44;21.80;99.00
26304;DHT22;70693;48.680;8.890;2023-07-08T12:59:14;21.80;99.00
26304;DHT22;70693;48.680;8.890;2023-07-08T13:01:42;21.80;99.00
26304;DHT22;70693;48.680;8.890;2023-07-08T13:04:11;21.80;99.00
26304;DHT22;70693;48.680;8.890;2023-07-08T13:06:39;21.80;99.00
26304;DHT22;70693;48.680;8.890;2023-07-08T13:09:26;21.80;99.00
26304;DHT22;70693;48.680;8.890;2023-07-08T13:11:53;21.80;99.00
26304;DHT22;70693;48.680;8.890;2023-07-08T13:14:22;21.80;99.00
26304;DHT22;70693;48.680;8.890;2023-07-08T13:16:49;21.80;99.00
26304;DHT22;70693;48.680;8.890;2023-07-08T13:19:15;21.80;99.00
26304;DHT22;70693;48.680;8.890;2023-07-08T13:21:41;21.80;99.00
26304;DHT22;70693;48.680;8.890;2023-07-08T13:24:11;21.80;99.00
26304;DHT22;70693;48.680;8.890;2023-07-08T13:26:37;21.80;99.00
26304;DHT22;70693;48.680;8.890;2023-07-08T13:29:15;21.80;98.90
26304;DHT22;70693;48.680;8.890;2023-07-08T13:31:52;21.80;98.90
26304;DHT22;70693;48.680;8.890;2023-07-08T13:34:20;21.80;98.90
26304;DHT22;70693;48.680;8.890;2023-07-08T13:36:51;21.80;99.00
26304;DHT22;70693;48.680;8.890;2023-07-08T13:39:27;21.80;99.00
26304;DHT22;70693;48.680;8.890;2023-07-08T13:41:55;21.80;98.90
26304;DHT22;70693;48.680;8.890;2023-07-08T13:44:21;21.80;98.90
26304;DHT22;70693;48.680;8.890;2023-07-08T13:46:55;21.80;98.90
26304;DHT22;70693;48.680;8.890;2023-07-08T13:49:53;21.80;98.90
26304;DHT22;70693;48.680;8.890;2023-07-08T13:52:21;21.80;98.90
26304;DHT22;70693;48.680;8.890;2023-07-08T13:54:50;21.80;98.90
26304;DHT22;70693;48.680;8.890;2023-07-08T13:57:20;21.80;98.90
26304;DHT22;70693;48.680;8.890;2023-07-08T13:59:46;21.80;98.90
26304;DHT22;70693;48.680;8.890;2023-07-08T14:02:31;21.80;99.30
26304;DHT22;70693;48.680;8.890;2023-07-08T14:04:58;21.80;99.00
26304;DHT22;70693;48.680;8.890;2023-07-08T14:07:31;21.80;99.00
26304;DHT22;70693;48.680;8.890;2023-07-08T14:09:57;21.80;99.00
26304;DHT22;70693;48.680;8.890;2023-07-08T14:12:23;21.80;99.00
26304;DHT22;70693;48.680;8.890;2023-07-08T14:14:49;21.80;99.00
26304;DHT22;70693;48.680;8.890;2023-07-08T14:17:33;21.80;99.00
26304;DHT22;70693;48.680;8.890;2023-07-08T14:19:58;21.80;99.00
26304;DHT22;70693;48.680;8.890;2023-07-08T14:22:26;21.80;99.00
26304;DHT22;70693;48.680;8.890;2023-07-08T14:24:53;21.80;99.00
26304;DHT22;70693;48.680;8.890;2023-07-08T14:27:18;21.80;99.00
26304;DHT22;70693;48.680;8.890;2023-07-08T14:29:49;21.90;99.10
26304;DHT22;70693;48.680;8.890;2023-07-08T14:32:24;21.80;99.10
26304;DHT22;70693;48.680;8.890;2023-07-08T14:34:54;21.80;99.10
26304;DHT22;70693;48.680;8.890;2023-07-08T14:37:20;21.90;99.10
26304;DHT22;70693;48.680;8.890;2023-07-08T14:39:47;21.90;99.20
26304;DHT22;70693;48.680;8.890;2023-07-08T14:42:15;21.90;99.30
26304;DHT22;70693;48.680;8.890;2023-07-08T14:44:44;21.90;99.60
26304;DHT22;70693;48.680;8.890;2023-07-08T14:47:14;21.90;99.90
26304;DHT22;70693;48.680;8.890;2023-07-08T14:49:40;21.90;99.90
26304;DHT22;70693;48.680;8.890;2023-07-08T14:52:07;21.90;99.90
26304;DHT22;70693;48.680;8.890;2023-07-08T14:54:33;21.90;99.90
26304;DHT22;70693;48.680;8.890;2023-07-08T14:56:59;22.00;99.90
26304;DHT22;70693;48.680;8.890;2023-07-08T14:59:29;21.90;99.90
26304;DHT22;70693;48.680;8.890;2023-07-08T15:01:58;22.00;99.90
26304;DHT22;70693;48.680;8.890;2023-07-08T15:04:24;22.00;99.90
26304;DHT22;70693;48.680;8.890;2023-07-08T15:06:50;22.00;99.90
26304;DHT22;70693;48.680;8.890;2023-07-08T15:09:17;21.90;99.90
26304;DHT22;70693;48.680;8.890;2023-07-08T15:11:44;22.00;99.90
26304;DHT22;70693;48.680;8.890;2023-07-08T15:14:28;22.00;99.90
26304;DHT22;70693;48.680;8.890;2023-07-08T15:16:53;21.90;99.90
26304;DHT22;70693;48.680;8.890;2023-07-08T15:19:20;22.00;99.90
26304;DHT22;70693;48.680;8.890;2023-07-08T15:21:46;22.00;99.90
26304;DHT22;70693;48.680;8.890;2023-07-08T15:24:13;22.00;99.90
26304;DHT22;70693;48.680;8.890;2023-07-08T15:26:44;22.00;99.90
26304;DHT22;70693;48.680;8.890;2023-07-08T15:29:16;22.00;99.90
26304;DHT22;70693;48.680;8.890;2023-07-08T15:31:43;22.00;99.90
26304;DHT22;70693;48.680;8.890;2023-07-08T15:34:20;22.00;99.90
26304;DHT22;70693;48.680;8.890;2023-07-08T15:36:46;22.00;99.90
26304;DHT22;70693;48.680;8.890;2023-07-08T15:39:12;22.00;99.90
26304;DHT22;70693;48.680;8.890;2023-07-08T15:41:41;22.00;99.90
26304;DHT22;70693;48.680;8.890;2023-07-08T15:44:14;22.00;99.90
26304;DHT22;70693;48.680;8.890;2023-07-08T15:46:45;22.00;99.90
26304;DHT22;70693;48.680;8.890;2023-07-08T15:49:21;22.00;99.90
26304;DHT22;70693;48.680;8.890;2023-07-08T15:51:48;22.00;99.90
26304;DHT22;70693;48.680;8.890;2023-07-08T15:54:14;22.00;99.90
26304;DHT22;70693;48.680;8.890;2023-07-08T15:56:41;22.00;99.90
26304;DHT22;70693;48.680;8.890;2023-07-08T15:59:28;22.00;99.90
26304;DHT22;70693;48.680;8.890;2023-07-08T16:01:54;22.00;99.90
26304;DHT22;70693;48.680;8.890;2023-07-08T16:04:28;22.00;99.90
26304;DHT22;70693;48.680;8.890;2023-07-08T16:06:56;22.00;99.90
26304;DHT22;70693;48.680;8.890;2023-07-08T16:09:22;22.00;99.90
26304;DHT22;70693;48.680;8.890;2023-07-08T16:11:48;22.00;99.90
26304;DHT22;70693;48.680;8.890;2023-07-08T16:14:14;22.00;99.90
26304;DHT22;70693;48.680;8.890;2023-07-08T16:16:41;22.00;99.90
26304;DHT22;70693;48.680;8.890;2023-07-08T16:19:12;22.10;99.90
26304;DHT22;70693;48.680;8.890;2023-07-08T16:21:38;22.10;99.90
26304;DHT22;70693;48.680;8.890;2023-07-08T16:24:04;22.00;99.90
26304;DHT22;70693;48.680;8.890;2023-07-08T16:26:30;22.10;99.90